Terminal Aerodrome Forecast
Issued by NWS Boston, MA

Home | Current Version | Previous Version | Text Only | Print | Product List | Glossary Off
Versions: 1 2 3 4 5 6 7 8 9 10 11 12 13 14 15 16 17 18 19 20 21 22 23 24 25 26 27 28 29 30 31 32 33 34 35 36 37 38 39 40 41 42 43 44 45 46 47 48 49 50
000 FTUS41 KBOX 052321 TAFBDL TAF KBDL 052321Z 0600/0706 04012KT P6SM OVC015 FM060300 01007KT P6SM BKN025 FM060900 36006KT P6SM BKN030 FM061300 05006KT P6SM VCSH OVC030 FM061700 08006KT P6SM VCSH OVC025 FM062300 09005KT P6SM -SHRA OVC015=

USA.gov is the U.S. government's official web portal to all federal, state and local government web resources and services.